createdAt,value
2023-04-02T00:00:10.792Z,10.40
2023-04-02T00:01:21.118Z,10.40
2023-04-02T00:02:30.156Z,10.40
2023-04-02T00:04:16.392Z,10.30
2023-04-02T00:05:51.360Z,10.40
2023-04-02T00:07:15.292Z,10.40
2023-04-02T00:08:29.490Z,10.40
2023-04-02T00:09:38.707Z,10.30
2023-04-02T00:10:49.412Z,10.40
2023-04-02T00:11:54.827Z,10.40
2023-04-02T00:13:02.168Z,10.40
2023-04-02T00:14:06.648Z,10.40
2023-04-02T00:15:13.115Z,10.40
2023-04-02T00:16:22.876Z,10.40
2023-04-02T00:17:25.561Z,10.40
2023-04-02T00:18:28.752Z,10.30
2023-04-02T00:19:37.524Z,10.30
2023-04-02T00:20:45.193Z,10.30
2023-04-02T00:21:48.322Z,10.30
2023-04-02T00:22:51.832Z,10.40
2023-04-02T00:23:55.039Z,10.30
2023-04-02T00:25:00.956Z,10.30
2023-04-02T00:26:06.860Z,10.30
2023-04-02T00:27:13.664Z,10.30
2023-04-02T00:28:17.969Z,10.30
2023-04-02T00:29:21.757Z,10.30
2023-04-02T00:30:23.705Z,10.30
2023-04-02T00:31:27.241Z,10.30
2023-04-02T00:32:32.985Z,10.40
2023-04-02T00:33:36.242Z,10.30
2023-04-02T00:34:40.220Z,10.30
2023-04-02T00:35:44.308Z,10.30
2023-04-02T00:36:46.834Z,10.20
2023-04-02T00:37:51.195Z,10.30
2023-04-02T00:38:55.866Z,10.30
2023-04-02T00:40:06.233Z,10.30
2023-04-02T00:41:08.370Z,10.30
2023-04-02T00:42:13.986Z,10.30
2023-04-02T00:43:16.821Z,10.30
2023-04-02T00:44:21.774Z,10.20
2023-04-02T00:45:28.848Z,10.30
2023-04-02T00:46:34.588Z,10.30
2023-04-02T00:47:38.962Z,10.30
2023-04-02T00:48:46.422Z,10.30
2023-04-02T00:49:54.447Z,10.30
2023-04-02T00:50:58.761Z,10.30
2023-04-02T00:52:03.202Z,10.30
2023-04-02T00:53:11.647Z,10.30
2023-04-02T00:54:15.811Z,10.30
2023-04-02T00:55:23.865Z,10.20
2023-04-02T00:56:29.283Z,10.30
2023-04-02T00:57:33.459Z,10.30
2023-04-02T00:58:37.452Z,10.30
2023-04-02T00:59:49.905Z,10.20
2023-04-02T01:00:53.052Z,10.20
2023-04-02T01:02:02.752Z,10.20
2023-04-02T01:03:28.928Z,10.20
2023-04-02T01:04:35.058Z,10.20
2023-04-02T01:05:38.852Z,10.20
2023-04-02T01:06:43.973Z,10.30
2023-04-02T01:07:57.143Z,10.20
2023-04-02T01:09:24.081Z,10.20
2023-04-02T01:10:41.585Z,10.20
2023-04-02T01:12:04.434Z,10.20
2023-04-02T01:13:18.003Z,10.20
2023-04-02T01:14:35.988Z,10.20
2023-04-02T01:15:42.509Z,10.20
2023-04-02T01:16:54.486Z,10.00
2023-04-02T01:18:13.756Z,10.20
2023-04-02T01:19:45.980Z,10.20
2023-04-02T01:21:06.503Z,10.20
2023-04-02T01:22:18.315Z,10.10
2023-04-02T01:23:26.749Z,10.10
2023-04-02T01:24:33.178Z,10.10
2023-04-02T01:25:43.250Z,10.10
2023-04-02T01:26:57.596Z,10.20
2023-04-02T01:28:07.007Z,10.10
2023-04-02T01:29:14.909Z,10.10
2023-04-02T01:30:18.285Z,10.10
2023-04-02T01:31:22.411Z,10.10
2023-04-02T01:32:28.981Z,10.20
2023-04-02T01:33:34.320Z,10.10
2023-04-02T01:34:38.030Z,10.10
2023-04-02T01:35:47.076Z,10.20
2023-04-02T01:37:00.870Z,10.10
2023-04-02T01:38:11.769Z,10.20
2023-04-02T01:39:25.897Z,10.10
2023-04-02T01:40:37.143Z,10.10
2023-04-02T01:41:44.775Z,10.10
2023-04-02T01:42:55.622Z,10.10
2023-04-02T01:44:02.885Z,10.10
2023-04-02T01:45:10.933Z,10.10
2023-04-02T01:46:26.009Z,10.10
2023-04-02T01:47:29.741Z,10.10
2023-04-02T01:48:32.187Z,10.10
2023-04-02T01:49:35.377Z,10.20
2023-04-02T01:50:40.102Z,10.10
2023-04-02T01:51:45.496Z,10.00
2023-04-02T01:52:50.466Z,10.10
2023-04-02T01:53:53.661Z,10.30
2023-04-02T01:54:56.953Z,10.20
2023-04-02T01:56:02.136Z,10.20
2023-04-02T01:57:04.809Z,10.10
2023-04-02T01:58:09.795Z,10.10
2023-04-02T01:59:12.867Z,10.10
2023-04-02T02:00:19.394Z,10.10
2023-04-02T02:01:25.749Z,10.10
2023-04-02T02:02:29.209Z,10.20
2023-04-02T02:03:31.880Z,10.20
2023-04-02T02:04:35.728Z,10.20
2023-04-02T02:05:37.768Z,10.10
2023-04-02T02:06:41.340Z,10.30
2023-04-02T02:07:43.792Z,10.10
2023-04-02T02:08:51.210Z,10.10
2023-04-02T02:09:54.049Z,10.20
2023-04-02T02:10:58.460Z,10.20
2023-04-02T02:12:02.814Z,10.10
2023-04-02T02:13:06.667Z,10.10
2023-04-02T02:14:15.500Z,10.10
2023-04-02T02:15:23.212Z,10.10
2023-04-02T02:16:27.330Z,9.40
2023-04-02T02:17:34.476Z,10.20
2023-04-02T02:18:36.850Z,10.10
2023-04-02T02:19:42.979Z,10.10
2023-04-02T02:20:45.298Z,10.10
2023-04-02T02:21:52.151Z,10.20
2023-04-02T02:22:55.302Z,10.20
2023-04-02T02:23:58.638Z,10.10
2023-04-02T02:25:03.529Z,10.10
2023-04-02T02:26:07.823Z,10.10
2023-04-02T02:27:47.833Z,10.10
2023-04-02T02:28:52.532Z,10.10
2023-04-02T02:29:58.495Z,10.20
2023-04-02T02:31:04.626Z,10.10
2023-04-02T02:32:09.791Z,10.10
2023-04-02T02:33:18.854Z,10.00
2023-04-02T02:34:25.102Z,10.20
2023-04-02T02:35:31.971Z,10.10
2023-04-02T02:36:40.024Z,10.10
2023-04-02T02:37:48.591Z,10.00
2023-04-02T02:38:56.307Z,10.10
2023-04-02T02:40:01.912Z,10.20
2023-04-02T02:41:08.707Z,10.20
2023-04-02T02:42:17.022Z,10.10
2023-04-02T02:43:19.565Z,10.10
2023-04-02T02:44:26.105Z,10.20
2023-04-02T02:45:33.861Z,10.20
2023-04-02T02:46:41.583Z,10.10
2023-04-02T02:47:45.499Z,10.10
2023-04-02T02:48:49.240Z,10.10
2023-04-02T02:49:54.986Z,10.20
2023-04-02T02:50:58.728Z,10.10
2023-04-02T02:52:12.672Z,10.10
2023-04-02T02:53:20.023Z,10.10
2023-04-02T02:54:22.276Z,10.20
2023-04-02T02:55:29.454Z,10.10
2023-04-02T02:56:36.818Z,10.20
2023-04-02T02:57:42.656Z,10.10
2023-04-02T02:58:44.655Z,10.10
2023-04-02T02:59:48.080Z,10.10
2023-04-02T03:00:50.259Z,10.10
2023-04-02T03:01:55.529Z,10.10
2023-04-02T03:02:58.204Z,10.10
2023-04-02T03:04:02.021Z,10.10
2023-04-02T03:05:05.346Z,10.10
2023-04-02T03:06:10.345Z,10.10
2023-04-02T03:07:13.492Z,10.10
2023-04-02T03:08:21.904Z,10.10
2023-04-02T03:09:34.157Z,10.10
2023-04-02T03:10:44.904Z,10.10
2023-04-02T03:11:53.562Z,10.10
2023-04-02T03:13:03.440Z,10.20
2023-04-02T03:14:16.901Z,10.20
2023-04-02T03:15:26.922Z,10.10
2023-04-02T03:16:34.427Z,10.10
2023-04-02T03:17:44.045Z,10.10
2023-04-02T03:18:53.431Z,10.10
2023-04-02T03:20:01.628Z,10.00
2023-04-02T03:21:11.228Z,10.10
2023-04-02T03:22:20.331Z,10.00
2023-04-02T03:23:27.041Z,10.00
2023-04-02T03:24:36.377Z,10.00
2023-04-02T03:25:43.645Z,10.00
2023-04-02T03:26:52.120Z,10.00
2023-04-02T03:27:59.440Z,10.00
2023-04-02T03:29:08.278Z,10.00
2023-04-02T03:30:28.707Z,10.00
2023-04-02T03:31:36.223Z,10.00
2023-04-02T03:32:42.314Z,10.00
2023-04-02T03:33:47.206Z,10.00
2023-04-02T03:34:54.476Z,10.00
2023-04-02T03:36:04.082Z,10.00
2023-04-02T03:37:11.984Z,10.00
2023-04-02T03:38:19.569Z,10.00
2023-04-02T03:39:29.098Z,10.00
2023-04-02T03:40:37.976Z,10.00
2023-04-02T03:41:45.979Z,10.00
2023-04-02T03:42:52.381Z,10.00
2023-04-02T03:44:00.143Z,10.00
2023-04-02T03:45:10.839Z,9.90
2023-04-02T03:46:25.096Z,10.00
2023-04-02T03:47:34.879Z,9.80
2023-04-02T03:48:44.414Z,10.00
2023-04-02T03:49:50.507Z,10.00
2023-04-02T03:50:59.106Z,10.00
2023-04-02T03:52:05.980Z,10.00
2023-04-02T03:53:11.082Z,10.00
2023-04-02T03:54:16.050Z,10.00
2023-04-02T03:55:22.772Z,10.00
2023-04-02T03:56:29.519Z,10.00
2023-04-02T03:57:37.508Z,10.00
2023-04-02T03:58:44.386Z,10.00
2023-04-02T03:59:56.885Z,10.00
2023-04-02T04:01:05.185Z,10.00
2023-04-02T04:02:17.623Z,10.00
2023-04-02T04:03:25.266Z,10.00
2023-04-02T04:04:32.024Z,10.00
2023-04-02T04:05:37.256Z,10.00
2023-04-02T04:06:44.254Z,10.00
2023-04-02T04:07:46.594Z,10.00
2023-04-02T04:08:54.722Z,10.00
2023-04-02T04:09:59.277Z,10.10
2023-04-02T04:11:09.636Z,10.00
2023-04-02T04:12:24.499Z,10.00
2023-04-02T04:13:36.014Z,10.00
2023-04-02T04:14:45.168Z,10.00
2023-04-02T04:15:55.944Z,10.00
2023-04-02T04:17:04.555Z,10.00
2023-04-02T04:18:19.176Z,10.00
2023-04-02T04:19:29.900Z,10.00
2023-04-02T04:20:41.334Z,10.00
2023-04-02T04:21:45.243Z,10.00
2023-04-02T04:22:49.871Z,10.00
2023-04-02T04:23:52.209Z,10.00
2023-04-02T04:24:57.206Z,10.00
2023-04-02T04:26:05.479Z,10.00
2023-04-02T04:27:17.096Z,10.00
2023-04-02T04:28:26.195Z,10.10
2023-04-02T04:29:40.672Z,10.10
2023-04-02T04:30:51.566Z,10.10
2023-04-02T04:31:55.604Z,10.00
2023-04-02T04:33:04.800Z,10.10
2023-04-02T04:34:12.787Z,10.00
2023-04-02T04:35:21.354Z,10.10
2023-04-02T04:36:29.069Z,10.10
2023-04-02T04:37:35.101Z,10.00
2023-04-02T04:38:44.202Z,10.00
2023-04-02T04:39:50.987Z,10.00
2023-04-02T04:40:56.959Z,10.00
2023-04-02T04:42:01.438Z,10.00
2023-04-02T04:43:08.025Z,10.00
2023-04-02T04:44:17.575Z,10.00
2023-04-02T04:45:35.229Z,10.00
2023-04-02T04:46:41.885Z,10.00
2023-04-02T04:47:52.305Z,10.00
2023-04-02T04:48:59.276Z,10.00
2023-04-02T04:50:06.587Z,10.00
2023-04-02T04:51:17.197Z,9.90
2023-04-02T04:52:24.910Z,10.00
2023-04-02T04:53:28.904Z,10.00
2023-04-02T04:54:31.960Z,10.00
2023-04-02T04:55:39.618Z,10.00
2023-04-02T04:56:47.322Z,10.00
2023-04-02T04:57:51.113Z,9.90
2023-04-02T04:59:00.014Z,10.00
2023-04-02T05:00:11.253Z,9.90
2023-04-02T05:01:18.249Z,10.00
2023-04-02T05:02:24.751Z,10.00
2023-04-02T05:03:35.157Z,9.90
2023-04-02T05:04:39.449Z,10.00
2023-04-02T05:05:43.142Z,9.90
2023-04-02T05:06:52.610Z,10.00
2023-04-02T05:08:01.268Z,10.00
2023-04-02T05:09:08.510Z,10.00
2023-04-02T05:10:20.423Z,10.00
2023-04-02T05:11:28.678Z,9.90
2023-04-02T05:12:36.890Z,9.90
2023-04-02T05:13:44.430Z,9.90
2023-04-02T05:14:52.450Z,10.00
2023-04-02T05:16:03.653Z,10.00
2023-04-02T05:17:11.459Z,9.90
2023-04-02T05:18:23.189Z,10.00
2023-04-02T05:19:32.424Z,10.00
2023-04-02T05:20:41.393Z,10.00
2023-04-02T05:21:49.597Z,10.00
2023-04-02T05:22:57.163Z,10.00
2023-04-02T05:24:07.828Z,9.90
2023-04-02T05:25:24.815Z,9.90
2023-04-02T05:26:33.163Z,10.00
2023-04-02T05:27:42.837Z,10.00
2023-04-02T05:28:51.276Z,10.00
2023-04-02T05:30:00.652Z,10.00
2023-04-02T05:31:05.884Z,10.00
2023-04-02T05:32:16.012Z,10.00
2023-04-02T05:33:23.304Z,10.00
2023-04-02T05:34:28.959Z,10.00
2023-04-02T05:35:34.300Z,10.00
2023-04-02T05:36:37.760Z,10.00
2023-04-02T05:37:40.720Z,10.00
2023-04-02T05:38:47.586Z,10.00
2023-04-02T05:39:54.468Z,9.90
2023-04-02T05:41:02.039Z,10.00
2023-04-02T05:42:05.487Z,10.00
2023-04-02T05:43:11.408Z,10.00
2023-04-02T05:44:21.891Z,10.10
2023-04-02T05:45:31.268Z,10.00
2023-04-02T05:46:41.941Z,10.00
2023-04-02T05:47:46.741Z,9.90
2023-04-02T05:48:55.390Z,10.00
2023-04-02T05:50:18.486Z,10.00
2023-04-02T05:51:27.168Z,10.00
2023-04-02T05:52:34.148Z,10.00
2023-04-02T05:53:39.326Z,10.00
2023-04-02T05:54:48.114Z,10.00
2023-04-02T05:55:57.288Z,10.00
2023-04-02T05:57:06.048Z,10.00
2023-04-02T05:59:27.600Z,10.00
2023-04-02T06:00:45.635Z,10.00
2023-04-02T06:01:52.252Z,9.90
2023-04-02T06:03:00.162Z,9.90
2023-04-02T06:04:12.453Z,10.00
2023-04-02T06:05:18.158Z,10.00
2023-04-02T06:06:30.147Z,10.00
2023-04-02T06:07:41.708Z,10.00
2023-04-02T06:08:51.347Z,10.00
2023-04-02T06:09:57.745Z,10.00
2023-04-02T06:11:07.830Z,9.90
2023-04-02T06:12:25.704Z,10.00
2023-04-02T06:13:28.285Z,10.00
2023-04-02T06:14:31.532Z,10.00
2023-04-02T06:15:37.000Z,10.00
2023-04-02T06:16:40.221Z,9.90
2023-04-02T06:17:46.927Z,9.90
2023-04-02T06:18:50.133Z,9.90
2023-04-02T06:19:54.838Z,10.00
2023-04-02T06:21:00.706Z,10.00
2023-04-02T06:22:11.561Z,10.00
2023-04-02T06:23:18.898Z,10.00
2023-04-02T06:24:25.339Z,10.00
2023-04-02T06:25:31.866Z,10.00
2023-04-02T06:26:39.305Z,10.00
2023-04-02T06:27:44.095Z,10.00
2023-04-02T06:28:48.877Z,10.00
2023-04-02T06:29:52.987Z,10.00
2023-04-02T06:31:00.846Z,10.00
2023-04-02T06:32:04.138Z,10.00
2023-04-02T06:33:08.069Z,10.00
2023-04-02T06:34:15.784Z,10.00
2023-04-02T06:35:18.861Z,10.00
2023-04-02T06:36:22.401Z,10.10
2023-04-02T06:37:30.138Z,10.10
2023-04-02T06:38:34.960Z,10.10
2023-04-02T06:39:36.876Z,10.10
2023-04-02T06:40:43.297Z,10.10
2023-04-02T06:41:46.774Z,10.20
2023-04-02T06:42:56.275Z,10.10
2023-04-02T06:44:02.461Z,10.10
2023-04-02T06:45:06.474Z,10.20
2023-04-02T06:46:15.226Z,10.10
2023-04-02T06:47:25.632Z,10.10
2023-04-02T06:48:30.601Z,10.20
2023-04-02T06:49:37.547Z,10.20
2023-04-02T06:50:48.868Z,10.20
2023-04-02T06:51:55.497Z,10.30
2023-04-02T06:53:00.309Z,10.20
2023-04-02T06:54:03.440Z,10.30
2023-04-02T06:55:22.809Z,10.20
2023-04-02T06:56:38.185Z,10.20
2023-04-02T06:57:43.044Z,10.20
2023-04-02T06:58:45.078Z,10.20
2023-04-02T06:59:48.114Z,10.20
2023-04-02T07:00:51.155Z,10.20
2023-04-02T07:01:57.469Z,10.20
2023-04-02T07:03:01.116Z,10.20
2023-04-02T07:04:04.291Z,10.20
2023-04-02T07:05:09.117Z,10.30
2023-04-02T07:06:17.211Z,10.20
2023-04-02T07:07:20.156Z,10.30
2023-04-02T07:08:22.403Z,10.30
2023-04-02T07:09:25.952Z,10.30
2023-04-02T07:10:27.917Z,10.20
2023-04-02T07:11:30.946Z,10.30
2023-04-02T07:12:32.950Z,10.30
2023-04-02T07:13:37.484Z,10.30
2023-04-02T07:14:39.394Z,10.30
2023-04-02T07:15:42.401Z,10.40
2023-04-02T07:16:45.738Z,10.40
2023-04-02T07:17:47.784Z,10.40
2023-04-02T07:18:51.160Z,10.40
2023-04-02T07:19:54.125Z,10.40
2023-04-02T07:20:56.878Z,10.40
2023-04-02T07:22:00.402Z,10.40
2023-04-02T07:23:02.375Z,10.40
2023-04-02T07:24:05.646Z,10.40
2023-04-02T07:25:08.037Z,10.40
2023-04-02T07:26:15.410Z,10.40
2023-04-02T07:27:17.626Z,10.40
2023-04-02T07:28:22.559Z,10.40
2023-04-02T07:29:26.289Z,10.50
2023-04-02T07:30:29.219Z,10.50
2023-04-02T07:31:32.130Z,10.40
2023-04-02T07:32:34.093Z,10.50
2023-04-02T07:33:37.057Z,10.50
2023-04-02T07:34:39.489Z,10.50
2023-04-02T07:35:42.483Z,10.50
2023-04-02T07:36:44.408Z,10.50
2023-04-02T07:37:47.332Z,10.40
2023-04-02T07:38:51.211Z,10.40
2023-04-02T07:39:54.117Z,10.40
2023-04-02T07:40:56.066Z,10.50
2023-04-02T07:42:00.870Z,10.40
2023-04-02T07:43:03.399Z,10.50
2023-04-02T07:44:06.378Z,10.50
2023-04-02T07:45:11.101Z,10.50
2023-04-02T07:46:16.692Z,10.50
2023-04-02T07:47:18.698Z,10.50
2023-04-02T07:48:21.730Z,10.50
2023-04-02T07:49:23.754Z,10.50
2023-04-02T07:50:26.713Z,10.40
2023-04-02T07:51:28.810Z,10.50
2023-04-02T07:52:32.150Z,10.50
2023-04-02T07:53:38.723Z,10.50
2023-04-02T07:54:40.657Z,10.50
2023-04-02T07:55:43.541Z,10.60
2023-04-02T07:56:46.560Z,10.60
2023-04-02T07:57:49.882Z,10.50
2023-04-02T07:58:53.014Z,10.60
2023-04-02T07:59:56.590Z,10.50
2023-04-02T08:01:03.683Z,10.60
2023-04-02T08:02:06.951Z,10.50
2023-04-02T08:03:10.083Z,10.50
2023-04-02T08:04:18.837Z,10.50
2023-04-02T08:05:22.456Z,10.50
2023-04-02T08:06:25.729Z,10.50
2023-04-02T08:07:28.872Z,10.60
2023-04-02T08:08:30.945Z,10.50
2023-04-02T08:09:33.897Z,10.50
2023-04-02T08:10:36.853Z,10.50
2023-04-02T08:11:41.987Z,10.50
2023-04-02T08:12:43.885Z,10.50
2023-04-02T08:13:46.958Z,10.30
2023-04-02T08:14:48.908Z,10.40
2023-04-02T08:15:52.064Z,10.50
2023-04-02T08:16:56.192Z,11.80
2023-04-02T08:17:59.397Z,10.50
2023-04-02T08:19:01.655Z,10.50
2023-04-02T08:20:06.637Z,10.50
2023-04-02T08:21:10.838Z,10.60
2023-04-02T08:22:13.949Z,10.50
2023-04-02T08:23:17.969Z,10.60
2023-04-02T08:24:21.411Z,10.60
2023-04-02T08:25:23.403Z,10.60
2023-04-02T08:26:26.555Z,10.60
2023-04-02T08:27:28.569Z,10.70
2023-04-02T08:28:31.562Z,10.60
2023-04-02T08:29:33.723Z,10.70
2023-04-02T08:30:36.749Z,10.60
2023-04-02T08:31:38.764Z,10.60
2023-04-02T08:32:43.083Z,10.50
2023-04-02T08:33:45.032Z,10.60
2023-04-02T08:34:47.988Z,10.50
2023-04-02T08:35:51.730Z,10.60
2023-04-02T08:36:58.486Z,10.50
2023-04-02T08:38:00.599Z,10.60
2023-04-02T08:39:04.519Z,10.50
2023-04-02T08:40:08.597Z,9.60
2023-04-02T08:41:21.515Z,10.60
2023-04-02T08:42:32.099Z,10.60
2023-04-02T08:44:05.512Z,10.60
2023-04-02T08:45:25.473Z,10.50
2023-04-02T08:46:33.380Z,10.60
2023-04-02T08:47:40.428Z,10.50
2023-04-02T08:48:50.824Z,10.50
2023-04-02T08:49:58.734Z,10.50
2023-04-02T08:51:02.015Z,10.60
2023-04-02T08:52:05.204Z,10.50
2023-04-02T08:53:13.541Z,10.50
2023-04-02T08:54:23.304Z,10.50
2023-04-02T08:55:35.387Z,10.60
2023-04-02T08:56:42.192Z,10.50
2023-04-02T08:57:52.673Z,10.50
2023-04-02T08:58:57.948Z,10.50
2023-04-02T09:00:07.046Z,10.50
2023-04-02T09:01:22.353Z,10.50
2023-04-02T09:02:31.358Z,10.50
2023-04-02T09:03:39.687Z,10.40
2023-04-02T09:04:44.355Z,10.40
2023-04-02T09:05:47.838Z,9.80
2023-04-02T09:06:53.570Z,9.30
2023-04-02T09:07:58.535Z,9.20
2023-04-02T09:09:01.700Z,9.00
2023-04-02T09:10:07.234Z,9.00
2023-04-02T09:11:14.380Z,9.00
2023-04-02T09:12:20.447Z,8.90
2023-04-02T09:13:25.594Z,9.00
2023-04-02T09:14:41.788Z,9.00
2023-04-02T09:15:44.692Z,9.10
2023-04-02T09:16:51.047Z,9.00
2023-04-02T09:17:59.551Z,8.90
2023-04-02T09:19:02.744Z,9.00
2023-04-02T09:20:17.839Z,9.00
2023-04-02T09:21:34.783Z,9.00
2023-04-02T09:22:38.390Z,9.00
2023-04-02T09:23:40.584Z,9.10
2023-04-02T09:24:43.556Z,9.00
2023-04-02T09:25:54.271Z,9.00
2023-04-02T09:27:04.348Z,8.90
2023-04-02T09:28:09.613Z,8.90
2023-04-02T09:29:44.483Z,8.90
2023-04-02T09:31:00.527Z,8.90
2023-04-02T09:32:14.282Z,8.90
2023-04-02T09:33:17.215Z,8.80
2023-04-02T09:34:28.425Z,8.80
2023-04-02T09:35:34.189Z,8.80
2023-04-02T09:36:37.417Z,8.80
2023-04-02T09:37:41.426Z,8.80
2023-04-02T09:38:59.054Z,8.80
2023-04-02T09:40:23.515Z,8.90
2023-04-02T09:41:28.637Z,8.90
2023-04-02T09:42:34.050Z,8.80
2023-04-02T09:43:39.110Z,8.90
2023-04-02T09:44:42.155Z,8.90
2023-04-02T09:45:46.014Z,9.00
2023-04-02T09:46:53.806Z,9.00
2023-04-02T09:47:58.683Z,9.00
2023-04-02T09:49:01.779Z,9.10
2023-04-02T09:50:20.627Z,9.10
2023-04-02T09:51:25.852Z,9.10
2023-04-02T09:52:29.410Z,9.00
2023-04-02T09:53:34.681Z,9.10
2023-04-02T09:54:41.889Z,9.10
2023-04-02T09:55:43.902Z,9.10
2023-04-02T09:57:01.955Z,9.10
2023-04-02T09:58:12.072Z,9.10
2023-04-02T09:59:17.037Z,9.20
2023-04-02T10:00:31.548Z,9.10
2023-04-02T10:01:37.592Z,9.10
2023-04-02T10:02:41.375Z,9.10
2023-04-02T10:03:44.502Z,9.10
2023-04-02T10:04:48.447Z,9.10
2023-04-02T10:06:06.726Z,9.10
2023-04-02T10:07:34.529Z,9.10
2023-04-02T10:08:38.872Z,9.00
2023-04-02T10:09:40.770Z,9.00
2023-04-02T10:10:46.253Z,9.00
2023-04-02T10:11:50.610Z,8.90
2023-04-02T10:12:59.306Z,9.00
2023-04-02T10:14:05.808Z,9.00
2023-04-02T10:15:17.106Z,8.90
2023-04-02T10:16:26.503Z,8.80
2023-04-02T10:17:32.717Z,8.80
2023-04-02T10:18:42.890Z,9.10
2023-04-02T10:19:51.847Z,9.30
2023-04-02T10:20:55.834Z,9.50
2023-04-02T10:22:01.454Z,9.60
2023-04-02T10:23:06.443Z,9.70
2023-04-02T10:24:13.191Z,9.80
2023-04-02T10:25:15.836Z,9.90
2023-04-02T10:26:28.115Z,9.90
2023-04-02T10:27:38.600Z,10.00
2023-04-02T10:28:54.262Z,10.00
2023-04-02T10:30:21.244Z,10.10
2023-04-02T10:31:25.567Z,10.10
2023-04-02T10:32:33.928Z,10.10
2023-04-02T10:33:37.777Z,10.20
2023-04-02T10:34:48.516Z,10.20
2023-04-02T10:35:58.442Z,10.20
2023-04-02T10:37:09.292Z,10.20
2023-04-02T10:38:42.631Z,10.20
2023-04-02T10:39:48.851Z,10.30
2023-04-02T10:40:59.186Z,10.20
2023-04-02T10:42:05.344Z,10.20
2023-04-02T10:43:44.925Z,10.20
2023-04-02T10:44:55.567Z,10.20
2023-04-02T10:46:03.518Z,10.20
2023-04-02T10:47:19.862Z,10.20
2023-04-02T10:48:28.941Z,10.20
2023-04-02T10:49:38.678Z,10.20
2023-04-02T10:50:50.725Z,10.20
2023-04-02T10:52:00.248Z,10.20
2023-04-02T10:53:12.212Z,10.30
2023-04-02T10:54:34.725Z,10.20
2023-04-02T10:55:43.224Z,10.10
2023-04-02T10:56:51.001Z,10.10
2023-04-02T10:57:55.877Z,10.10
2023-04-02T10:59:03.301Z,10.10
2023-04-02T11:00:19.465Z,10.20
2023-04-02T11:01:25.861Z,10.20
2023-04-02T11:02:37.501Z,10.20
2023-04-02T11:03:46.184Z,10.20
2023-04-02T11:04:50.014Z,10.30
2023-04-02T11:05:56.933Z,10.30
2023-04-02T11:07:13.307Z,10.30
2023-04-02T11:08:21.116Z,10.40
2023-04-02T11:09:28.103Z,10.30
2023-04-02T11:10:34.874Z,10.30
2023-04-02T11:11:42.825Z,10.30
2023-04-02T11:12:52.554Z,10.30
2023-04-02T11:14:00.444Z,10.30
2023-04-02T11:15:03.426Z,10.30
2023-04-02T11:16:06.970Z,10.30
2023-04-02T11:17:16.202Z,10.30
2023-04-02T11:18:25.489Z,10.30
2023-04-02T11:19:30.259Z,10.30
2023-04-02T11:21:01.126Z,10.30
2023-04-02T11:22:06.881Z,10.40
2023-04-02T11:23:11.613Z,10.40
2023-04-02T11:24:29.911Z,10.40
2023-04-02T11:25:33.437Z,10.50
2023-04-02T11:26:42.216Z,10.50
2023-04-02T11:27:45.202Z,10.50
2023-04-02T11:28:47.220Z,10.50
2023-04-02T11:29:52.819Z,10.50
2023-04-02T11:30:55.964Z,10.60
2023-04-02T11:32:29.940Z,10.60
2023-04-02T11:33:45.615Z,10.60
2023-04-02T11:35:18.092Z,10.60
2023-04-02T11:36:58.422Z,10.60
2023-04-02T11:38:03.820Z,10.60
2023-04-02T11:39:17.046Z,10.60
2023-04-02T11:40:47.912Z,10.60
2023-04-02T11:42:22.283Z,10.60
2023-04-02T11:43:47.734Z,10.60
2023-04-02T11:44:50.915Z,10.50
2023-04-02T11:45:55.655Z,10.60
2023-04-02T11:47:19.849Z,10.50
2023-04-02T11:48:31.385Z,10.50
2023-04-02T11:49:40.075Z,10.50
2023-04-02T11:50:44.473Z,10.50
2023-04-02T11:51:56.369Z,10.50
2023-04-02T11:53:17.332Z,10.40
2023-04-02T11:54:24.937Z,10.40
2023-04-02T11:55:32.851Z,10.40
2023-04-02T11:56:42.588Z,10.30
2023-04-02T11:58:14.404Z,10.40
2023-04-02T11:59:25.104Z,10.30
2023-04-02T12:00:42.129Z,10.40
2023-04-02T12:02:06.201Z,10.40
2023-04-02T12:03:25.605Z,10.40
2023-04-02T12:04:44.376Z,10.50
2023-04-02T12:05:55.063Z,10.50
2023-04-02T12:07:26.534Z,10.50
2023-04-02T12:08:47.509Z,10.60
2023-04-02T12:10:01.414Z,10.60
2023-04-02T12:11:04.962Z,10.60
2023-04-02T12:12:24.660Z,10.60
2023-04-02T12:13:53.998Z,10.70
2023-04-02T12:14:57.106Z,10.70
2023-04-02T12:16:00.494Z,10.70
2023-04-02T12:17:05.453Z,10.80
2023-04-02T12:18:16.644Z,10.80
2023-04-02T12:19:19.917Z,10.80
2023-04-02T12:20:27.295Z,10.90
2023-04-02T12:21:31.534Z,11.00
2023-04-02T12:22:35.971Z,11.10
2023-04-02T12:23:39.872Z,11.20
2023-04-02T12:24:42.027Z,11.30
2023-04-02T12:25:52.647Z,11.30
2023-04-02T12:27:15.463Z,11.30
2023-04-02T12:28:20.638Z,11.40
2023-04-02T12:29:24.808Z,11.40
2023-04-02T12:30:27.994Z,11.50
2023-04-02T12:31:30.192Z,11.50
2023-04-02T12:32:33.255Z,11.50
2023-04-02T12:33:37.549Z,11.60
2023-04-02T12:34:47.205Z,11.60
2023-04-02T12:35:51.534Z,11.50
2023-04-02T12:36:55.740Z,11.40
2023-04-02T12:37:58.963Z,11.40
2023-04-02T12:39:01.002Z,11.30
2023-04-02T12:40:17.117Z,11.40
2023-04-02T12:41:26.948Z,11.30
2023-04-02T12:42:31.379Z,11.30
2023-04-02T12:43:38.056Z,11.40
2023-04-02T12:44:50.026Z,11.30
2023-04-02T12:45:54.050Z,11.30
2023-04-02T12:46:57.934Z,11.30
2023-04-02T12:48:03.158Z,11.40
2023-04-02T12:49:07.988Z,11.40
2023-04-02T12:50:15.472Z,11.40
2023-04-02T12:51:18.496Z,11.40
2023-04-02T12:52:22.392Z,11.50
2023-04-02T12:53:28.081Z,11.40
2023-04-02T12:54:35.530Z,11.40
2023-04-02T12:55:38.503Z,11.50
2023-04-02T12:56:40.723Z,11.40
2023-04-02T12:57:46.961Z,11.50
2023-04-02T12:58:55.270Z,11.50
2023-04-02T12:59:59.959Z,11.60
2023-04-02T13:01:18.503Z,11.70
2023-04-02T13:02:23.431Z,11.70
2023-04-02T13:03:28.991Z,11.70
2023-04-02T13:04:31.339Z,11.60
2023-04-02T13:05:37.177Z,11.60
2023-04-02T13:06:42.476Z,11.50
2023-04-02T13:07:47.507Z,11.50
2023-04-02T13:08:50.656Z,11.40
2023-04-02T13:09:54.195Z,11.40
2023-04-02T13:10:59.777Z,11.30
2023-04-02T13:12:02.405Z,11.30
2023-04-02T13:13:06.473Z,11.30
2023-04-02T13:14:18.963Z,11.20
2023-04-02T13:15:23.543Z,11.20
2023-04-02T13:16:30.132Z,11.10
2023-04-02T13:17:41.040Z,11.20
2023-04-02T13:18:46.288Z,11.20
2023-04-02T13:19:48.291Z,11.30
2023-04-02T13:21:02.973Z,11.30
2023-04-02T13:22:30.360Z,11.40
2023-04-02T13:23:36.623Z,11.40
2023-04-02T13:24:41.280Z,11.50
2023-04-02T13:26:48.863Z,11.50
2023-04-02T13:27:53.705Z,11.40
2023-04-02T13:28:57.695Z,11.40
2023-04-02T13:30:10.394Z,11.30
2023-04-02T13:31:17.208Z,11.30
2023-04-02T13:32:20.186Z,11.20
2023-04-02T13:33:22.399Z,11.20
2023-04-02T13:34:25.864Z,11.20
2023-04-02T13:36:31.186Z,11.10
2023-04-02T13:37:33.188Z,11.10
2023-04-02T13:38:36.329Z,11.10
2023-04-02T13:39:39.295Z,11.00
2023-04-02T13:40:41.367Z,11.00
2023-04-02T13:41:46.334Z,10.90
2023-04-02T13:42:49.744Z,10.90
2023-04-02T13:43:53.899Z,10.90
2023-04-02T13:44:56.818Z,10.90
2023-04-02T13:46:06.931Z,10.90
2023-04-02T13:47:14.750Z,10.90
2023-04-02T13:48:18.305Z,10.90
2023-04-02T13:50:25.509Z,10.80
2023-04-02T13:51:34.339Z,10.70
2023-04-02T13:52:37.346Z,10.70
2023-04-02T13:53:39.370Z,10.60
2023-04-02T13:54:45.659Z,10.70
2023-04-02T13:55:48.288Z,10.60
2023-04-02T13:56:51.627Z,10.60
2023-04-02T13:57:55.365Z,10.50
2023-04-02T13:58:58.303Z,10.50
2023-04-02T14:00:01.571Z,10.50
2023-04-02T14:01:06.026Z,10.50
2023-04-02T14:02:12.799Z,10.40
2023-04-02T14:03:19.537Z,10.50
2023-04-02T14:04:26.892Z,10.40
2023-04-02T14:05:38.229Z,10.40
2023-04-02T14:07:12.891Z,10.40
2023-04-02T14:08:23.801Z,10.40
2023-04-02T14:09:33.744Z,10.30
2023-04-02T14:10:54.854Z,10.40
2023-04-02T14:12:06.505Z,10.30
2023-04-02T14:13:23.581Z,10.30
2023-04-02T14:14:47.918Z,10.30
2023-04-02T14:16:12.253Z,10.30
2023-04-02T14:17:24.348Z,10.30
2023-04-02T14:18:42.449Z,10.20
2023-04-02T14:20:05.800Z,10.30
2023-04-02T14:21:15.717Z,10.30
2023-04-02T14:22:29.683Z,10.30
2023-04-02T14:23:46.675Z,10.20
2023-04-02T14:24:56.715Z,10.20
2023-04-02T14:26:08.891Z,10.20
2023-04-02T14:27:23.570Z,10.20
2023-04-02T14:28:38.032Z,10.20
2023-04-02T14:29:47.807Z,10.40
2023-04-02T14:30:54.458Z,10.30
2023-04-02T14:32:04.323Z,10.30
2023-04-02T14:33:16.959Z,10.30
2023-04-02T14:34:27.266Z,10.30
2023-04-02T14:35:33.896Z,10.30
2023-04-02T14:36:45.819Z,10.20
2023-04-02T14:37:55.280Z,10.20
2023-04-02T14:39:04.176Z,10.20
2023-04-02T14:40:17.531Z,10.20
2023-04-02T14:41:26.515Z,10.20
2023-04-02T14:42:34.088Z,10.10